Terminal Aerodrome Forecast
Issued by NWS Cleveland, OH

Home | Current Version | Previous Version | Graphics & Text | Print | Product List | Glossary On
Versions: 1 2 3 4 5 6 7 8 9 10 11 12 13 14 15 16 17 18 19 20 21 22 23 24 25 26 27 28 29
588
FTUS41 KCLE 270206 AAB
TAFCLE
TAF AMD
KCLE 270206Z 2702/2806 03010G20KT P6SM OVC010
     FM271200 05012KT P6SM SCT250
     FM272200 04015G25KT P6SM OVC100
     FM280300 06006KT P6SM OVC100=

USA.gov is the U.S. government's official web portal to all federal, state and local government web resources and services.